createdAt,value
2019-03-19T00:00:14.338Z,76.90
2019-03-19T00:02:47.927Z,76.90
2019-03-19T00:05:17.171Z,76.80
2019-03-19T00:07:49.989Z,76.90
2019-03-19T00:10:20.184Z,76.90
2019-03-19T00:12:54.402Z,76.40
2019-03-19T00:15:27.780Z,76.70
2019-03-19T00:17:58.029Z,77.10
2019-03-19T00:20:28.826Z,77.50
2019-03-19T00:23:00.275Z,77.60
2019-03-19T00:25:30.719Z,77.50
2019-03-19T00:28:00.061Z,76.90
2019-03-19T00:30:33.960Z,76.90
2019-03-19T00:33:07.511Z,77.10
2019-03-19T00:35:40.026Z,76.60
2019-03-19T00:38:11.541Z,76.20
2019-03-19T00:40:40.821Z,75.60
2019-03-19T00:43:11.862Z,75.20
2019-03-19T00:45:43.474Z,75.60
2019-03-19T00:48:15.442Z,75.40
2019-03-19T00:50:46.836Z,75.60
2019-03-19T00:53:19.303Z,75.80
2019-03-19T00:55:50.473Z,75.90
2019-03-19T00:58:20.118Z,76.00
2019-03-19T01:00:50.563Z,75.90
2019-03-19T01:03:21.873Z,75.50
2019-03-19T01:05:51.159Z,75.50
2019-03-19T01:08:23.906Z,75.10
2019-03-19T01:10:54.977Z,74.90
2019-03-19T01:13:30.219Z,74.40
2019-03-19T01:15:59.455Z,74.50
2019-03-19T01:18:31.016Z,75.30
2019-03-19T01:21:00.293Z,74.70
2019-03-19T01:23:31.764Z,74.10
2019-03-19T01:26:04.110Z,74.20
2019-03-19T01:28:35.571Z,74.30
2019-03-19T01:31:07.837Z,74.60
2019-03-19T01:33:38.101Z,74.90
2019-03-19T01:36:07.438Z,74.50
2019-03-19T01:38:36.720Z,74.40
2019-03-19T01:41:07.008Z,74.20
2019-03-19T01:43:42.945Z,75.60
2019-03-19T01:46:13.457Z,75.60
2019-03-19T01:48:43.567Z,75.70
2019-03-19T01:51:12.970Z,75.40
2019-03-19T01:53:47.944Z,75.80
2019-03-19T01:56:20.241Z,75.30
2019-03-19T01:58:52.257Z,75.40
2019-03-19T02:01:21.590Z,75.20
2019-03-19T02:03:54.443Z,74.90
2019-03-19T02:06:34.357Z,74.90
2019-03-19T02:09:04.419Z,75.50
2019-03-19T02:11:33.863Z,75.20
2019-03-19T02:14:03.172Z,75.10
2019-03-19T02:16:32.929Z,75.00
2019-03-19T02:19:02.197Z,75.00
2019-03-19T02:21:37.617Z,74.60
2019-03-19T02:24:08.573Z,74.30
2019-03-19T02:26:38.992Z,74.40
2019-03-19T02:29:10.711Z,74.40
2019-03-19T02:31:42.199Z,74.60
2019-03-19T02:34:13.869Z,74.80
2019-03-19T02:36:43.189Z,74.70
2019-03-19T02:39:17.686Z,74.60
2019-03-19T02:41:49.615Z,74.20
2019-03-19T02:44:20.047Z,74.60
2019-03-19T02:46:49.371Z,74.70
2019-03-19T02:49:19.929Z,74.90
2019-03-19T02:51:49.246Z,75.00
2019-03-19T02:54:20.174Z,74.70
2019-03-19T02:56:49.420Z,74.70
2019-03-19T02:59:18.704Z,75.00
2019-03-19T03:01:54.297Z,75.00
2019-03-19T03:04:23.721Z,75.00
2019-03-19T03:06:53.052Z,75.10
2019-03-19T03:09:22.399Z,75.80
2019-03-19T03:11:54.621Z,75.30
2019-03-19T03:14:28.193Z,75.10
2019-03-19T03:17:02.082Z,74.80
2019-03-19T03:19:31.353Z,75.40
2019-03-19T03:22:00.669Z,75.70
2019-03-19T03:24:34.047Z,75.50
2019-03-19T03:27:04.352Z,75.70
2019-03-19T03:29:35.353Z,75.40
2019-03-19T03:32:07.826Z,75.50
2019-03-19T03:34:37.991Z,75.30
2019-03-19T03:37:07.343Z,75.20
2019-03-19T03:39:38.823Z,74.80
2019-03-19T03:42:10.078Z,75.10
2019-03-19T03:44:44.669Z,75.30
2019-03-19T03:47:14.983Z,75.60
2019-03-19T03:49:47.816Z,75.60
2019-03-19T03:52:19.481Z,75.90
2019-03-19T03:54:52.570Z,76.40
2019-03-19T03:57:22.578Z,76.10
2019-03-19T03:59:54.340Z,77.30
2019-03-19T04:02:30.779Z,76.80
2019-03-19T04:05:00.037Z,76.70
2019-03-19T04:07:34.380Z,76.70
2019-03-19T04:10:06.383Z,76.70
2019-03-19T04:12:46.438Z,76.70
2019-03-19T04:15:16.967Z,76.60
2019-03-19T04:17:49.495Z,76.50
2019-03-19T04:20:22.939Z,76.10
2019-03-19T04:22:52.284Z,75.70
2019-03-19T04:25:21.590Z,76.10
2019-03-19T04:27:53.573Z,76.60
2019-03-19T04:30:23.120Z,76.50
2019-03-19T04:32:54.981Z,76.50
2019-03-19T04:35:24.565Z,76.70
2019-03-19T04:37:57.754Z,76.80
2019-03-19T04:40:30.158Z,77.10
2019-03-19T04:43:11.058Z,77.00
2019-03-19T04:45:45.729Z,77.00
2019-03-19T04:48:18.801Z,76.90
2019-03-19T04:50:48.699Z,77.00
2019-03-19T04:53:24.387Z,76.70
2019-03-19T04:56:08.226Z,76.70
2019-03-19T04:58:41.541Z,76.60
2019-03-19T05:01:11.790Z,77.00
2019-03-19T05:03:41.276Z,77.80
2019-03-19T05:06:15.600Z,77.20
2019-03-19T05:08:49.265Z,77.30
2019-03-19T05:11:18.478Z,77.40
2019-03-19T05:13:50.936Z,77.50
2019-03-19T05:16:20.261Z,77.70
2019-03-19T05:18:50.700Z,77.30
2019-03-19T05:21:20.000Z,77.20
2019-03-19T05:23:49.332Z,77.10
2019-03-19T05:26:20.339Z,77.10
2019-03-19T05:28:50.594Z,77.40
2019-03-19T05:31:20.837Z,77.60
2019-03-19T05:33:51.012Z,77.50
2019-03-19T05:36:22.321Z,77.30
2019-03-19T05:38:55.160Z,77.60
2019-03-19T05:41:24.545Z,77.40
2019-03-19T05:43:56.032Z,76.90
2019-03-19T05:46:26.035Z,76.70
2019-03-19T05:48:57.868Z,76.60
2019-03-19T05:51:27.216Z,76.40
2019-03-19T05:53:58.080Z,76.10
2019-03-19T05:56:28.823Z,76.00
2019-03-19T05:59:07.592Z,75.70
2019-03-19T06:04:42.605Z,76.30
2019-03-19T06:07:14.993Z,76.60
2019-03-19T06:09:44.676Z,76.50
2019-03-19T06:12:16.468Z,76.30
2019-03-19T06:14:45.759Z,77.30
2019-03-19T06:17:15.425Z,76.50
2019-03-19T06:19:46.656Z,75.90
2019-03-19T06:22:19.997Z,76.00
2019-03-19T06:24:53.105Z,76.70
2019-03-19T06:27:22.756Z,75.50
2019-03-19T06:29:52.925Z,75.30
2019-03-19T06:32:22.466Z,75.40
2019-03-19T06:34:51.778Z,76.20
2019-03-19T06:37:23.134Z,76.00
2019-03-19T06:39:54.818Z,76.10
2019-03-19T06:42:24.453Z,75.90
2019-03-19T06:45:01.320Z,75.80
2019-03-19T06:47:32.631Z,75.20
2019-03-19T06:50:01.877Z,74.70
2019-03-19T06:52:35.023Z,75.00
2019-03-19T06:55:03.812Z,74.40
2019-03-19T06:57:39.195Z,74.30
2019-03-19T07:00:15.259Z,74.20
2019-03-19T07:02:46.238Z,74.10
2019-03-19T07:05:21.544Z,73.90
2019-03-19T07:07:52.868Z,73.70
2019-03-19T07:10:25.356Z,73.80
2019-03-19T07:12:56.451Z,73.60
2019-03-19T07:15:31.525Z,73.70
2019-03-19T07:18:03.610Z,73.30
2019-03-19T07:20:35.116Z,73.50
2019-03-19T07:23:08.096Z,73.80
2019-03-19T07:25:38.942Z,73.60
2019-03-19T07:28:21.426Z,73.30
2019-03-19T07:30:44.490Z,73.50
2019-03-19T07:33:15.385Z,73.10
2019-03-19T07:35:46.790Z,72.60
2019-03-19T07:38:16.523Z,72.70
2019-03-19T07:40:45.920Z,72.20
2019-03-19T07:43:19.921Z,72.30
2019-03-19T07:45:52.946Z,71.80
2019-03-19T07:48:23.426Z,71.50
2019-03-19T07:50:56.353Z,71.20
2019-03-19T07:56:03.946Z,70.80
2019-03-19T07:58:44.801Z,70.40
2019-03-19T08:01:05.145Z,70.80
2019-03-19T08:03:37.859Z,70.10
2019-03-19T08:06:07.195Z,69.60
2019-03-19T08:08:37.427Z,68.50
2019-03-19T08:11:23.570Z,66.90
2019-03-19T08:13:52.857Z,65.40
2019-03-19T08:16:27.335Z,64.10
2019-03-19T08:18:54.247Z,63.40
2019-03-19T08:21:26.082Z,63.30
2019-03-19T08:23:58.756Z,64.00
2019-03-19T08:29:28.051Z,65.60
2019-03-19T08:31:57.396Z,66.90
2019-03-19T08:34:26.816Z,67.30
2019-03-19T08:36:58.496Z,67.70
2019-03-19T08:39:29.141Z,68.40
2019-03-19T08:42:02.522Z,68.10
2019-03-19T08:44:33.863Z,68.80
2019-03-19T08:47:09.250Z,69.20
2019-03-19T08:49:39.520Z,69.60
2019-03-19T08:52:08.839Z,69.80
2019-03-19T08:54:39.779Z,69.30
2019-03-19T08:57:13.685Z,69.80
2019-03-19T08:59:46.631Z,70.10
2019-03-19T09:02:18.798Z,69.80
2019-03-19T09:04:48.137Z,69.60
2019-03-19T09:07:21.255Z,69.10
2019-03-19T09:09:56.554Z,69.20
2019-03-19T09:12:28.130Z,69.10
2019-03-19T09:15:01.101Z,69.50
2019-03-19T09:17:33.654Z,70.50
2019-03-19T09:20:04.186Z,70.90
2019-03-19T09:22:33.554Z,70.50
2019-03-19T09:25:03.229Z,70.60
2019-03-19T09:27:35.358Z,71.10
2019-03-19T09:30:18.844Z,72.20
2019-03-19T09:32:50.188Z,72.10
2019-03-19T09:35:26.039Z,72.50
2019-03-19T09:40:57.773Z,72.80
2019-03-19T09:43:29.156Z,72.30
2019-03-19T09:46:01.942Z,71.70
2019-03-19T09:48:36.630Z,71.40
2019-03-19T09:51:10.768Z,70.80
2019-03-19T09:53:40.989Z,70.00
2019-03-19T09:56:12.683Z,69.80
2019-03-19T09:58:42.127Z,69.60
2019-03-19T10:01:11.559Z,69.50
2019-03-19T10:03:47.887Z,68.30
2019-03-19T10:06:17.329Z,67.30
2019-03-19T10:08:46.626Z,68.10
2019-03-19T10:11:16.918Z,68.00
2019-03-19T10:20:25.794Z,68.70
2019-03-19T10:22:55.230Z,68.70
2019-03-19T10:25:28.187Z,67.50
2019-03-19T10:27:57.516Z,65.90
2019-03-19T10:30:26.963Z,66.40
2019-03-19T10:32:58.647Z,64.90
2019-03-19T10:35:28.108Z,62.60
2019-03-19T10:37:57.492Z,62.10
2019-03-19T10:40:26.904Z,63.90
2019-03-19T10:42:56.271Z,63.80
2019-03-19T10:45:32.879Z,63.00
2019-03-19T10:48:06.769Z,63.20
2019-03-19T10:50:42.350Z,62.70
2019-03-19T10:53:13.797Z,63.90
2019-03-19T10:55:45.052Z,63.30
2019-03-19T10:58:15.604Z,62.50
2019-03-19T11:00:45.554Z,62.40
2019-03-19T11:03:16.850Z,63.30
2019-03-19T11:05:46.199Z,62.10
2019-03-19T11:08:16.646Z,60.30
2019-03-19T11:10:45.988Z,57.30
2019-03-19T11:13:17.054Z,56.20
2019-03-19T11:15:49.548Z,55.60
2019-03-19T11:18:18.879Z,52.50
2019-03-19T11:20:48.205Z,53.00
2019-03-19T11:23:17.560Z,53.60
2019-03-19T11:25:54.431Z,54.30
2019-03-19T11:28:19.987Z,55.00
2019-03-19T11:30:49.242Z,54.80
2019-03-19T11:33:23.085Z,54.70
2019-03-19T11:35:52.931Z,53.00
2019-03-19T11:38:22.270Z,49.90
2019-03-19T11:40:51.629Z,48.10
2019-03-19T11:43:21.025Z,46.00
2019-03-19T11:45:50.373Z,47.10
2019-03-19T11:48:20.843Z,46.10
2019-03-19T11:50:50.147Z,45.40
2019-03-19T11:53:22.680Z,46.10
2019-03-19T11:55:53.128Z,46.30
2019-03-19T11:58:23.463Z,45.20
2019-03-19T12:01:00.115Z,43.40
2019-03-19T12:03:29.444Z,41.30
2019-03-19T12:06:00.351Z,39.80
2019-03-19T12:08:41.726Z,38.80
2019-03-19T12:11:14.856Z,40.30
2019-03-19T12:13:48.213Z,42.70
2019-03-19T12:16:18.105Z,42.60
2019-03-19T12:18:49.289Z,41.20
2019-03-19T12:21:22.108Z,41.60
2019-03-19T12:23:56.263Z,40.70
2019-03-19T12:26:25.606Z,38.90
2019-03-19T12:28:56.128Z,40.00
2019-03-19T12:31:25.510Z,39.00
2019-03-19T12:33:55.849Z,40.10
2019-03-19T12:36:25.230Z,43.60
2019-03-19T12:38:56.169Z,43.30
2019-03-19T12:41:25.520Z,42.80
2019-03-19T12:43:56.816Z,42.90
2019-03-19T12:46:26.113Z,43.60
2019-03-19T12:49:00.385Z,44.60
2019-03-19T12:51:31.069Z,47.00
2019-03-19T12:54:00.423Z,47.20
2019-03-19T12:56:30.729Z,47.30
2019-03-19T12:59:00.029Z,49.20
2019-03-19T13:01:31.394Z,49.70
2019-03-19T13:04:03.962Z,50.50
2019-03-19T13:06:34.854Z,50.30
2019-03-19T13:09:06.144Z,50.10
2019-03-19T13:11:39.719Z,49.80
2019-03-19T13:14:14.760Z,49.50
2019-03-19T13:16:44.153Z,49.60
2019-03-19T13:19:16.546Z,49.40
2019-03-19T13:21:50.507Z,49.40
2019-03-19T13:24:37.177Z,49.00
2019-03-19T13:27:10.307Z,49.20
2019-03-19T13:29:52.939Z,49.40
2019-03-19T13:32:22.352Z,49.80
2019-03-19T13:34:52.655Z,50.70
2019-03-19T13:37:26.501Z,51.60
2019-03-19T13:40:00.544Z,52.10
2019-03-19T13:42:35.289Z,52.40
2019-03-19T13:45:11.137Z,52.30
2019-03-19T13:47:45.014Z,52.50
2019-03-19T13:50:18.144Z,52.70
2019-03-19T13:52:49.183Z,51.70
2019-03-19T13:55:23.170Z,52.10
2019-03-19T13:57:53.888Z,52.60
2019-03-19T14:00:25.177Z,52.00
2019-03-19T14:02:54.490Z,51.70
2019-03-19T14:05:24.709Z,52.70
2019-03-19T14:07:54.374Z,52.40
2019-03-19T14:10:25.627Z,52.60
2019-03-19T14:12:55.700Z,51.90
2019-03-19T14:15:27.766Z,52.80
2019-03-19T14:17:57.081Z,53.50
2019-03-19T14:20:27.248Z,54.00
2019-03-19T14:23:04.480Z,53.30
2019-03-19T14:25:35.663Z,53.70
2019-03-19T14:28:48.578Z,54.60
2019-03-19T14:56:04.358Z,54.30
2019-03-19T14:58:33.629Z,55.20
2019-03-19T15:01:02.905Z,55.40
2019-03-19T15:03:32.201Z,56.20
2019-03-19T15:06:01.487Z,56.40
2019-03-19T15:08:32.725Z,56.20
2019-03-19T15:11:01.990Z,56.20
2019-03-19T15:13:31.273Z,55.90
2019-03-19T15:16:00.653Z,55.90
2019-03-19T15:18:29.992Z,56.00
2019-03-19T15:20:59.247Z,55.70
2019-03-19T15:23:31.684Z,55.80
2019-03-19T15:26:00.920Z,56.20
2019-03-19T15:28:31.891Z,55.70
2019-03-19T15:31:01.302Z,55.70
2019-03-19T15:33:30.511Z,56.20
2019-03-19T15:35:59.833Z,56.30
2019-03-19T15:38:34.998Z,56.30
2019-03-19T17:04:05.577Z,58.30
2019-03-19T18:01:57.314Z,56.50
2019-03-19T18:07:44.022Z,57.00
2019-03-19T18:10:22.010Z,57.20
2019-03-19T18:19:02.803Z,57.40
2019-03-19T18:25:00.939Z,57.90
2019-03-19T18:33:40.421Z,57.70
2019-03-19T18:36:11.552Z,57.90
2019-03-19T18:47:49.949Z,58.40
2019-03-19T18:50:29.907Z,58.60
2019-03-19T18:53:14.278Z,58.50
2019-03-19T19:45:20.296Z,61.40
2019-03-19T19:50:53.179Z,61.60
2019-03-19T19:56:35.612Z,61.30
2019-03-19T19:59:25.605Z,61.10
2019-03-19T20:08:20.773Z,61.20
2019-03-19T20:11:01.003Z,60.90
2019-03-19T20:13:54.071Z,61.30
2019-03-19T20:16:24.373Z,61.50
2019-03-19T20:18:55.713Z,61.80
2019-03-19T20:49:06.575Z,61.20
2019-03-19T21:04:00.232Z,60.80
2019-03-19T21:06:46.545Z,61.10
2019-03-19T21:18:48.412Z,60.60
2019-03-19T21:21:17.752Z,60.10
2019-03-19T21:24:24.030Z,60.60
2019-03-19T21:26:27.744Z,60.80
2019-03-19T21:28:56.906Z,60.50
2019-03-19T21:31:27.592Z,60.70
2019-03-19T21:34:00.820Z,61.10
2019-03-19T21:36:30.141Z,61.50
2019-03-19T21:38:59.405Z,61.60
2019-03-19T21:41:28.861Z,61.80
2019-03-19T21:44:18.618Z,62.20
2019-03-19T21:47:07.250Z,61.90
2019-03-19T21:49:52.263Z,61.90
2019-03-19T21:52:27.485Z,61.50
2019-03-19T21:55:13.954Z,61.70
2019-03-19T21:58:02.138Z,61.90
2019-03-19T22:09:47.651Z,62.60
2019-03-19T22:12:14.516Z,62.50
2019-03-19T22:14:47.821Z,62.60
2019-03-19T22:17:19.094Z,62.60
2019-03-19T22:19:50.518Z,62.70
2019-03-19T22:22:21.979Z,62.90
2019-03-19T22:24:55.520Z,63.00
2019-03-19T22:33:25.901Z,62.90
2019-03-19T22:36:11.978Z,62.90
2019-03-19T22:38:56.775Z,63.00
2019-03-19T22:41:46.678Z,62.90
2019-03-19T22:53:31.281Z,63.80
2019-03-19T22:56:09.555Z,64.10
2019-03-19T23:04:33.695Z,64.30
2019-03-19T23:16:10.643Z,65.10
2019-03-19T23:18:41.552Z,65.20
2019-03-19T23:21:11.935Z,65.60
2019-03-19T23:23:41.243Z,65.60
2019-03-19T23:26:11.600Z,66.30
2019-03-19T23:28:43.821Z,66.50
2019-03-19T23:31:13.652Z,66.80
2019-03-19T23:33:44.171Z,67.30
2019-03-19T23:36:13.531Z,67.30
2019-03-19T23:38:43.878Z,67.40
2019-03-19T23:41:13.153Z,68.10
2019-03-19T23:43:42.370Z,68.50
2019-03-19T23:46:11.721Z,68.60
2019-03-19T23:48:44.198Z,68.70
2019-03-19T23:51:16.425Z,69.10
2019-03-19T23:53:45.804Z,69.00
2019-03-19T23:56:17.950Z,68.80
2019-03-19T23:58:47.213Z,68.60
